Time,TemperatureF,DewpointF,PressureIn,WindDirection,WindDirectionDegrees,WindSpeedMPH,WindSpeedGustMPH,Humidity,HourlyPrecipIn,Conditions,Clouds,dailyrainin,SolarRadiationWatts/m^2,SoftwareType,DateUTC
2013-03-06 00:02:00,13.0,10.0,-100.00,NNE,21,2.0,4.0,86,0.00,,,0.00,1.000000,,2013-03-06 06:02:00,
2013-03-06 00:32:00,12.0,8.0,-100.00,North,349,2.0,3.0,84,0.00,,,0.00,1.000000,,2013-03-06 06:32:00,
2013-03-06 00:42:00,12.0,8.0,-100.00,North,349,2.0,3.0,84,0.00,,,0.00,1.000000,,2013-03-06 06:42:00,
2013-03-06 00:52:00,12.0,8.0,-100.00,North,349,2.0,3.0,84,0.00,,,0.00,1.000000,,2013-03-06 06:52:00,
2013-03-06 01:01:00,12.0,8.0,-100.00,North,349,2.0,3.0,84,0.00,,,0.00,1.000000,,2013-03-06 07:01:00,
2013-03-06 01:32:00,13.0,9.0,-100.00,NNE,31,2.0,3.0,85,0.00,,,0.00,1.000000,,2013-03-06 07:32:00,
2013-03-06 01:42:00,13.0,9.0,-100.00,NNE,31,2.0,3.0,85,0.00,,,0.00,1.000000,,2013-03-06 07:42:00,
2013-03-06 01:52:00,13.0,9.0,-100.00,NNE,31,2.0,3.0,85,0.00,,,0.00,1.000000,,2013-03-06 07:52:00,
2013-03-06 02:01:00,13.0,9.0,-100.00,NNE,31,2.0,3.0,85,0.00,,,0.00,1.000000,,2013-03-06 08:01:00,
2013-03-06 02:32:00,12.0,8.0,-100.00,NNE,13,2.0,4.0,85,0.00,,,-99.99,1.000000,,2013-03-06 08:32:00,
2013-03-06 02:42:00,12.0,8.0,-100.00,NNE,13,2.0,4.0,85,0.00,,,-99.99,1.000000,,2013-03-06 08:42:00,
2013-03-06 02:52:00,12.0,8.0,-100.00,NNE,13,2.0,4.0,85,0.00,,,-99.99,1.000000,,2013-03-06 08:52:00,
2013-03-06 03:01:00,12.0,8.0,-100.00,NNE,13,2.0,4.0,85,0.00,,,-99.99,1.000000,,2013-03-06 09:01:00,
2013-03-06 03:32:00,13.0,9.0,-100.00,WNW,295,0.0,4.0,84,0.00,,,0.00,1.000000,,2013-03-06 09:32:00,
2013-03-06 03:42:00,13.0,9.0,-100.00,WNW,295,0.0,4.0,84,0.00,,,0.00,1.000000,,2013-03-06 09:42:00,
2013-03-06 03:52:00,13.0,9.0,-100.00,WNW,295,0.0,4.0,84,0.00,,,0.00,1.000000,,2013-03-06 09:52:00,
2013-03-06 04:01:00,13.0,9.0,-100.00,WNW,295,0.0,4.0,84,0.00,,,0.00,1.000000,,2013-03-06 10:01:00,
2013-03-06 04:32:00,13.0,9.0,-100.00,NE,45,0.0,3.0,85,0.00,,,0.00,1.000000,,2013-03-06 10:32:00,
2013-03-06 04:42:00,13.0,9.0,-100.00,NE,45,0.0,3.0,85,0.00,,,0.00,1.000000,,2013-03-06 10:42:00,
2013-03-06 04:52:00,13.0,9.0,-100.00,NE,45,0.0,3.0,85,0.00,,,0.00,1.000000,,2013-03-06 10:52:00,
2013-03-06 05:02:00,13.0,9.0,-100.00,NE,45,0.0,3.0,85,0.00,,,0.00,1.000000,,2013-03-06 11:02:00,
2013-03-06 05:32:00,14.0,10.0,-100.00,NNW,344,3.0,5.0,85,0.00,,,0.00,1.000000,,2013-03-06 11:32:00,
2013-03-06 05:42:00,14.0,10.0,-100.00,NNW,344,3.0,5.0,85,0.00,,,0.00,1.000000,,2013-03-06 11:42:00,
2013-03-06 05:52:00,14.0,10.0,-100.00,NNW,344,3.0,5.0,85,0.00,,,0.00,1.000000,,2013-03-06 11:52:00,
2013-03-06 06:02:00,14.0,10.0,-100.00,NNW,344,3.0,5.0,85,0.00,,,0.00,1.000000,,2013-03-06 12:02:00,
2013-03-06 06:33:00,13.0,9.0,-100.00,NNE,23,3.0,4.0,84,0.00,,,0.00,1.000000,,2013-03-06 12:33:00,
2013-03-06 06:43:00,13.0,9.0,-100.00,NNE,23,3.0,4.0,84,0.00,,,0.00,1.000000,,2013-03-06 12:43:00,
2013-03-06 06:52:00,13.0,9.0,-100.00,NNE,23,3.0,4.0,84,0.00,,,0.00,1.000000,,2013-03-06 12:52:00,
2013-03-06 07:02:00,13.0,9.0,-100.00,NNE,23,3.0,4.0,84,0.00,,,0.00,1.000000,,2013-03-06 13:02:00,
2013-03-06 07:32:00,12.0,8.0,-100.00,NE,54,4.0,4.0,83,0.00,,,0.00,3.000000,,2013-03-06 13:32:00,
2013-03-06 07:42:00,12.0,8.0,-100.00,NE,54,4.0,4.0,83,0.00,,,0.00,3.000000,,2013-03-06 13:42:00,
2013-03-06 07:52:00,12.0,8.0,-100.00,NE,54,4.0,4.0,83,0.00,,,0.00,3.000000,,2013-03-06 13:52:00,
2013-03-06 08:01:00,12.0,8.0,-100.00,NE,54,4.0,4.0,83,0.00,,,0.00,3.000000,,2013-03-06 14:01:00,
2013-03-06 08:32:00,11.0,6.0,-100.00,NNE,26,4.0,6.0,81,0.00,,,0.00,68.000000,,2013-03-06 14:32:00,
2013-03-06 08:42:00,11.0,6.0,-100.00,NNE,26,4.0,6.0,81,0.00,,,0.00,68.000000,,2013-03-06 14:42:00,
2013-03-06 08:52:00,11.0,6.0,-100.00,NNE,26,4.0,6.0,81,0.00,,,0.00,68.000000,,2013-03-06 14:52:00,
2013-03-06 09:02:00,11.0,6.0,-100.00,NNE,26,4.0,6.0,81,0.00,,,0.00,68.000000,,2013-03-06 15:02:00,
2013-03-06 09:32:00,12.0,7.0,-100.00,NE,47,4.0,5.0,81,0.00,,,0.00,152.000000,,2013-03-06 15:32:00,
2013-03-06 09:42:00,12.0,7.0,-100.00,NE,47,4.0,5.0,81,0.00,,,0.00,152.000000,,2013-03-06 15:42:00,
2013-03-06 09:52:00,12.0,7.0,-100.00,NE,47,4.0,5.0,81,0.00,,,0.00,152.000000,,2013-03-06 15:52:00,
2013-03-06 10:01:00,12.0,7.0,-100.00,NE,47,4.0,5.0,81,0.00,,,0.00,152.000000,,2013-03-06 16:01:00,
2013-03-06 10:32:00,15.0,10.0,-100.00,ENE,73,4.0,7.0,79,0.00,,,0.00,328.000000,,2013-03-06 16:32:00,
2013-03-06 10:42:00,15.0,10.0,-100.00,ENE,73,4.0,7.0,79,0.00,,,0.00,328.000000,,2013-03-06 16:42:00,
2013-03-06 10:52:00,15.0,10.0,-100.00,ENE,73,4.0,7.0,79,0.00,,,0.00,328.000000,,2013-03-06 16:52:00,
2013-03-06 11:01:00,15.0,10.0,-100.00,ENE,73,4.0,7.0,79,0.00,,,0.00,328.000000,,2013-03-06 17:01:00,
2013-03-06 11:32:00,22.0,16.0,-100.00,ENE,58,3.0,6.0,76,0.00,,,0.00,511.000000,,2013-03-06 17:32:00,
2013-03-06 11:42:00,22.0,16.0,-100.00,ENE,58,3.0,6.0,76,0.00,,,0.00,511.000000,,2013-03-06 17:42:00,
2013-03-06 11:53:00,22.0,16.0,-100.00,ENE,58,3.0,6.0,76,0.00,,,0.00,511.000000,,2013-03-06 17:53:00,
2013-03-06 12:02:00,22.0,16.0,-100.00,ENE,58,3.0,6.0,76,0.00,,,0.00,511.000000,,2013-03-06 18:02:00,
2013-03-06 12:32:00,21.0,14.0,-100.00,SSE,168,4.0,6.0,75,0.00,,,0.00,679.000000,,2013-03-06 18:32:00,
2013-03-06 12:42:00,21.0,14.0,-100.00,SSE,168,4.0,6.0,75,0.00,,,0.00,679.000000,,2013-03-06 18:42:00,
2013-03-06 12:53:00,21.0,14.0,-100.00,SSE,168,4.0,6.0,75,0.00,,,0.00,679.000000,,2013-03-06 18:53:00,
2013-03-06 13:02:00,21.0,14.0,-100.00,SSE,168,4.0,6.0,75,0.00,,,0.00,679.000000,,2013-03-06 19:02:00,
2013-03-06 13:33:00,24.0,17.0,-100.00,SSW,197,4.0,5.0,73,0.00,,,0.00,719.000000,,2013-03-06 19:33:00,
2013-03-06 13:43:00,24.0,17.0,-100.00,SSW,197,4.0,5.0,73,0.00,,,0.00,719.000000,,2013-03-06 19:43:00,
2013-03-06 13:53:00,24.0,17.0,-100.00,SSW,197,4.0,5.0,73,0.00,,,0.00,719.000000,,2013-03-06 19:53:00,
2013-03-06 14:02:00,24.0,17.0,-100.00,SSW,197,4.0,5.0,73,0.00,,,0.00,719.000000,,2013-03-06 20:02:00,
2013-03-06 14:33:00,26.0,18.0,-100.00,SSE,154,4.0,5.0,71,0.00,,,0.00,692.000000,,2013-03-06 20:33:00,
2013-03-06 14:43:00,26.0,18.0,-100.00,SSE,154,4.0,5.0,71,0.00,,,0.00,692.000000,,2013-03-06 20:43:00,
2013-03-06 14:53:00,26.0,18.0,-100.00,SSE,154,4.0,5.0,71,0.00,,,0.00,692.000000,,2013-03-06 20:53:00,
2013-03-06 15:02:00,26.0,18.0,-100.00,SSE,154,4.0,5.0,71,0.00,,,0.00,692.000000,,2013-03-06 21:02:00,
2013-03-06 15:33:00,27.0,19.0,-100.00,SSE,157,3.0,5.0,71,0.00,,,0.00,607.000000,,2013-03-06 21:33:00,
2013-03-06 15:42:00,27.0,19.0,-100.00,SSE,157,3.0,5.0,71,0.00,,,0.00,607.000000,,2013-03-06 21:42:00,
2013-03-06 15:52:00,27.0,19.0,-100.00,SSE,157,3.0,5.0,71,0.00,,,0.00,607.000000,,2013-03-06 21:52:00,
2013-03-06 16:01:00,27.0,19.0,-100.00,SSE,157,3.0,5.0,71,0.00,,,0.00,607.000000,,2013-03-06 22:01:00,
2013-03-06 16:32:00,22.0,14.0,-100.00,WSW,255,7.0,8.0,70,0.00,,,0.00,465.000000,,2013-03-06 22:32:00,
2013-03-06 16:42:00,22.0,14.0,-100.00,WSW,255,7.0,8.0,70,0.00,,,0.00,465.000000,,2013-03-06 22:42:00,
2013-03-06 16:52:00,22.0,14.0,-100.00,WSW,255,7.0,8.0,70,0.00,,,0.00,465.000000,,2013-03-06 22:52:00,
2013-03-06 17:01:00,22.0,14.0,-100.00,WSW,255,7.0,8.0,70,0.00,,,0.00,465.000000,,2013-03-06 23:01:00,
2013-03-06 17:32:00,25.0,17.0,-100.00,NW,314,2.0,7.0,72,0.00,,,0.00,290.000000,,2013-03-06 23:32:00,
2013-03-06 17:42:00,25.0,17.0,-100.00,NW,314,2.0,7.0,72,0.00,,,0.00,290.000000,,2013-03-06 23:42:00,
2013-03-06 17:52:00,25.0,17.0,-100.00,NW,314,2.0,7.0,72,0.00,,,0.00,290.000000,,2013-03-06 23:52:00,
2013-03-06 18:01:00,25.0,17.0,-100.00,NW,314,2.0,7.0,72,0.00,,,0.00,290.000000,,2013-03-07 00:01:00,
2013-03-06 18:32:00,19.0,12.0,-100.00,NNE,12,0.0,2.0,75,0.00,,,0.00,103.000000,,2013-03-07 00:32:00,
2013-03-06 18:42:00,19.0,12.0,-100.00,NNE,12,0.0,2.0,75,0.00,,,0.00,103.000000,,2013-03-07 00:42:00,
2013-03-06 18:52:00,19.0,12.0,-100.00,NNE,12,0.0,2.0,75,0.00,,,0.00,103.000000,,2013-03-07 00:52:00,
2013-03-06 19:01:00,19.0,12.0,-100.00,NNE,12,0.0,2.0,75,0.00,,,0.00,103.000000,,2013-03-07 01:01:00,
2013-03-06 19:32:00,14.0,9.0,-100.00,NNW,338,3.0,4.0,80,0.00,,,0.00,2.000000,,2013-03-07 01:32:00,
2013-03-06 19:42:00,14.0,9.0,-100.00,NNW,338,3.0,4.0,80,0.00,,,0.00,2.000000,,2013-03-07 01:42:00,
2013-03-06 19:52:00,14.0,9.0,-100.00,NNW,338,3.0,4.0,80,0.00,,,0.00,2.000000,,2013-03-07 01:52:00,
2013-03-06 20:01:00,14.0,9.0,-100.00,NNW,338,3.0,4.0,80,0.00,,,0.00,2.000000,,2013-03-07 02:01:00,
2013-03-06 20:32:00,8.0,3.0,-100.00,ENE,59,6.0,7.0,81,0.00,,,0.00,1.000000,,2013-03-07 02:32:00,
2013-03-06 20:42:00,8.0,3.0,-100.00,ENE,59,6.0,7.0,81,0.00,,,0.00,1.000000,,2013-03-07 02:42:00,
2013-03-06 20:52:00,8.0,3.0,-100.00,ENE,59,6.0,7.0,81,0.00,,,0.00,1.000000,,2013-03-07 02:52:00,
2013-03-06 21:02:00,8.0,3.0,-100.00,ENE,59,6.0,7.0,81,0.00,,,0.00,1.000000,,2013-03-07 03:02:00,
2013-03-06 21:32:00,4.0,-1.0,-100.00,SE,146,2.0,6.0,79,0.00,,,0.00,1.000000,,2013-03-07 03:32:00,
2013-03-06 21:42:00,4.0,-1.0,-100.00,SE,146,2.0,6.0,79,0.00,,,0.00,1.000000,,2013-03-07 03:42:00,
2013-03-06 21:52:00,4.0,-1.0,-100.00,SE,146,2.0,6.0,79,0.00,,,0.00,1.000000,,2013-03-07 03:52:00,
2013-03-06 22:01:00,4.0,-1.0,-100.00,SE,146,2.0,6.0,79,0.00,,,0.00,1.000000,,2013-03-07 04:01:00,
2013-03-06 22:32:00,4.0,-1.0,-100.00,SSE,156,2.0,4.0,80,0.00,,,0.00,1.000000,,2013-03-07 04:32:00,
2013-03-06 22:42:00,4.0,-1.0,-100.00,SSE,156,2.0,4.0,80,0.00,,,0.00,1.000000,,2013-03-07 04:42:00,
2013-03-06 22:52:00,4.0,-1.0,-100.00,SSE,156,2.0,4.0,80,0.00,,,0.00,1.000000,,2013-03-07 04:52:00,
2013-03-06 23:02:00,4.0,-1.0,-100.00,SSE,156,2.0,4.0,80,0.00,,,0.00,1.000000,,2013-03-07 05:02:00,
2013-03-06 23:32:00,3.0,-1.0,-100.00,SE,125,3.0,4.0,81,0.00,,,0.00,1.000000,,2013-03-07 05:32:00,
2013-03-06 23:42:00,3.0,-1.0,-100.00,SE,125,3.0,4.0,81,0.00,,,0.00,1.000000,,2013-03-07 05:42:00,
2013-03-06 23:52:00,3.0,-1.0,-100.00,SE,125,3.0,4.0,81,0.00,,,0.00,1.000000,,2013-03-07 05:52:00,